Saint Petersburg, FL (33704)

8:44 PM EDT on August 31, 2015 (GMT -0400)
Northeast Park | | Change Station
CLOSE
Current Station
Personal Weather Station
Location: Saint Petersburg, FL
Elevation: 23 ft
Nearby Weather Stations

Elev 23 ft 27.81 °N, 82.63 °W | Updated 1 second ago

Overcast
Overcast
79.5 °F
Feels Like 85 °F
N
0.0
Wind Variable Wind from SSE
Gusts 2.2 mph

Today
High -- | Low -- °F
--% Chance of Precip.
Yesterday
High -- | Low -- °F
Precip. -- in
7:08 AM 7:52 PM
Waning Gibbous, 92% visible
Pressure 30.02 in
Visibility 10.0 miles
Clouds Few 2400 ft
Scattered Clouds 3800 ft
Mostly Cloudy 7000 ft
Heat Index 85 °F
Dew Point 77 °F
Humidity 92%
Rainfall in
Snow Depth Not available.
UV 0 out of 12
Pollen .60 out of 12
Air Quality Not available.
Flu Activity Not available.
SPECI KSPG 010040Z 21006KT 10SM VCTS FEW024 SCT038 BKN070 28/24 A3002 RMK AO2 LTG DSNT N RAB2356E14 TSB05E34 P0001 T02830244
Pressure 30.02 in
Visibility 10.0 miles
Clouds Few 2400 ft
Scattered Clouds 3800 ft
Mostly Cloudy 7000 ft
Heat Index 85 °F
Dew Point 77 °F
Humidity 92%
Rainfall in
Snow Depth Not available.
UV 0 out of 12
Pollen .60 out of 12
Air Quality Not available.
Flu Activity Not available.
SPECI KSPG 010040Z 21006KT 10SM VCTS FEW024 SCT038 BKN070 28/24 A3002 RMK AO2 LTG DSNT N RAB2356E14 TSB05E34 P0001 T02830244

10-Day Weather Forecast

×

Almanac

Astronomy

Aug. 31, 2015 Rise Set
Actual Time
Civil Twilight
Nautical Twilight
Astronomical Twilight
Moon
Length of Visible Light
Length of Day
Tomorrow will be .
, % of the Moon is Illuminated

Today's Extremes

State Highs State Lows

Community

WunderPhotos

Upload Photos

1,851,411 photos uploaded!

WunderBlogs® & News

Nearby

Air Quality

  Air Quality AQ Index Pollutant
Not available.

Snow Depth

Station Depth Elevation

Earthquake Activity

City Distance Mag. Time & Date
Minimum magnitude displayed is 2.5.

Coastal Water Temperatures

Place Temperature

Stations

Nearby Weather Stations

Station Location Temp. Windchill Dew Point Humidity Wind Precip. Elev Updated Type